Delray Beach, FL (33444)

7:38 PM EST on December 08, 2016 (GMT -0500)
Delray Beach | | Change Station

Elev 30 ft 26.47 °N, 80.09 °W | Updated 21 seconds ago

Mostly Cloudy
Mostly Cloudy
73.4 °F
Feels Like 73 °F
N
3.7
Wind Variable Wind from NW
Gusts 6.3 mph

Today
High -- | Low -- °F
--% Chance of Precip.
Yesterday
High -- | Low -- °F
Precip. -- in
Pressure 30.10 in
Visibility 7.0 miles
Clouds Few 3000 ft
Scattered Clouds 7000 ft
Heat Index 73 °F
Dew Point 68 °F
Humidity 84%
Rainfall 0.00 in
Snow Depth Not available.
6:56 AM 5:28 PM
Waxing Gibbous, 68% visible
METAR KPMP 082353Z 35008KT 7SM FEW030 SCT070 24/22 A3009 RMK AO2 SLP191 T02390217 10272 20239 51017
Pressure 30.10 in
Visibility 7.0 miles
Clouds Few 3000 ft
Scattered Clouds 7000 ft
Heat Index 73 °F
Dew Point 68 °F
Humidity 84%
Rainfall 0.00 in
Snow Depth Not available.
6:56 AM 5:28 PM
Waxing Gibbous, 68% visible
METAR KPMP 082353Z 35008KT 7SM FEW030 SCT070 24/22 A3009 RMK AO2 SLP191 T02390217 10272 20239 51017

10-Day Weather Forecast

Almanac

Astronomy

Dec. 08, 2016 Rise Set
Actual Time
Civil Twilight
Nautical Twilight
Astronomical Twilight
Moon
Length of Visible Light
Length of Day
Tomorrow will be .
, % of the Moon is Illuminated

Today's Extremes

State Highs State Lows

Community

WunderPhotos

Upload Photos

1,956,277 photos uploaded!

WunderBlog® & News

Nearby

Air Quality

  Air Quality AQ Index Pollutant
Not available.

Snow Depth

Station Depth Elevation

Earthquake Activity

City Distance Mag. Time & Date
Minimum magnitude displayed is 2.5.

Coastal Water Temperatures

Place Temperature

Stations

Nearby Weather Stations

Station Location Temp. Windchill Dew Point Humidity Wind Precip. Elev Updated Type
                   

Watches & Warnings

There are currently no watches in effect.